createdAt,value
2022-09-01T00:00:49.399Z,0.50
2022-09-01T00:05:55.054Z,0.50
2022-09-01T00:10:56.968Z,0.60
2022-09-01T00:15:59.586Z,0.40
2022-09-01T00:21:01.576Z,0.38
2022-09-01T00:26:04.093Z,0.50
2022-09-01T00:31:07.804Z,0.40
2022-09-01T00:36:10.074Z,0.50
2022-09-01T00:41:13.013Z,0.52
2022-09-01T00:46:21.509Z,0.63
2022-09-01T00:51:24.432Z,0.82
2022-09-01T00:56:26.594Z,0.57
2022-09-01T01:01:28.453Z,1.13
2022-09-01T01:06:32.013Z,0.88
2022-09-01T01:11:34.128Z,0.75
2022-09-01T01:16:39.066Z,0.70
2022-09-01T01:22:03.177Z,0.55
2022-09-01T01:27:05.248Z,0.73
2022-09-01T01:32:13.083Z,0.70
2022-09-01T01:37:15.363Z,0.60
2022-09-01T01:42:17.154Z,0.55
2022-09-01T01:47:20.270Z,0.60
2022-09-01T01:52:26.236Z,0.77
2022-09-01T01:57:32.032Z,0.80
2022-09-01T02:02:33.880Z,0.68
2022-09-01T02:07:38.090Z,0.82
2022-09-01T02:12:41.757Z,0.57
2022-09-01T02:17:45.011Z,0.70
2022-09-01T02:22:46.871Z,0.75
2022-09-01T02:27:55.544Z,1.02
2022-09-01T02:32:58.665Z,0.65
2022-09-01T02:38:01.725Z,0.80
2022-09-01T02:43:03.531Z,0.90
2022-09-01T02:48:09.771Z,0.93
2022-09-01T02:53:15.418Z,0.98
2022-09-01T02:58:19.161Z,0.93
2022-09-01T03:03:21.923Z,0.98
2022-09-01T03:08:25.010Z,0.93
2022-09-01T03:13:29.128Z,0.70
2022-09-01T03:18:31.016Z,0.98
2022-09-01T03:23:34.031Z,0.90
2022-09-01T03:28:37.709Z,0.75
2022-09-01T03:33:39.762Z,1.15
2022-09-01T03:38:44.085Z,1.10
2022-09-01T03:43:48.334Z,0.88
2022-09-01T03:48:55.718Z,0.63
2022-09-01T03:59:01.196Z,0.80
2022-09-01T04:04:06.662Z,0.70
2022-09-01T04:09:10.914Z,0.77
2022-09-01T04:14:13.432Z,0.73
2022-09-01T04:19:26.304Z,0.80
2022-09-01T04:24:31.045Z,0.70
2022-09-01T04:29:33.389Z,0.70
2022-09-01T04:34:38.214Z,0.70
2022-09-01T04:39:51.315Z,0.77
2022-09-01T04:44:57.687Z,0.90
2022-09-01T04:50:00.251Z,0.70
2022-09-01T04:55:03.329Z,0.68
2022-09-01T05:00:06.377Z,0.60
2022-09-01T05:05:13.681Z,0.73
2022-09-01T05:10:23.120Z,0.95
2022-09-01T05:15:25.110Z,0.70
2022-09-01T05:25:55.708Z,0.60
2022-09-01T05:31:01.826Z,0.50
2022-09-01T05:36:08.566Z,0.50
2022-09-01T05:41:18.170Z,0.70
2022-09-01T05:46:26.806Z,0.50
2022-09-01T05:51:45.705Z,0.40
2022-09-01T05:56:48.942Z,0.40
2022-09-01T06:01:53.804Z,0.52
2022-09-01T06:07:05.673Z,0.30
2022-09-01T06:12:18.649Z,0.30
2022-09-01T06:17:25.973Z,0.32
2022-09-01T06:22:30.021Z,0.20
2022-09-01T06:27:40.372Z,0.40
2022-09-01T06:32:54.372Z,0.38
2022-09-01T06:38:05.824Z,0.20
2022-09-01T06:43:26.078Z,0.30
2022-09-01T07:17:53.423Z,0.30
2022-09-01T07:45:31.464Z,0.20
2022-09-01T08:01:43.394Z,0.30
2022-09-01T08:06:47.056Z,0.40
2022-09-01T08:12:01.602Z,0.30
2022-09-01T08:17:18.411Z,0.20
2022-09-01T08:22:50.922Z,0.30
2022-09-01T08:28:00.775Z,0.25
2022-09-01T08:33:12.676Z,0.30
2022-09-01T08:38:27.117Z,0.38
2022-09-01T08:43:48.740Z,0.30
2022-09-01T08:49:27.567Z,0.30
2022-09-01T08:54:40.794Z,0.20
2022-09-01T08:59:47.505Z,0.30
2022-09-01T09:04:55.317Z,0.30
2022-09-01T09:10:11.180Z,0.30
2022-09-01T09:15:23.611Z,0.30
2022-09-01T09:20:27.983Z,0.63
2022-09-01T09:25:34.441Z,0.30
2022-09-01T09:30:38.575Z,0.40
2022-09-01T09:35:46.637Z,0.30
2022-09-01T09:41:17.322Z,0.30
2022-09-01T09:46:28.083Z,0.30
2022-09-01T09:51:30.348Z,0.30
2022-09-01T09:56:36.111Z,0.30
2022-09-01T10:01:49.741Z,0.37
2022-09-01T10:06:57.666Z,0.25
2022-09-01T10:12:08.531Z,0.30
2022-09-01T10:17:26.198Z,0.50
2022-09-01T10:22:33.354Z,0.30
2022-09-01T10:27:44.252Z,0.30
2022-09-01T10:39:04.562Z,0.40
2022-09-01T10:44:36.190Z,0.30
2022-09-01T10:49:51.898Z,0.20
2022-09-01T10:55:03.621Z,0.30
2022-09-01T11:06:33.953Z,0.40
2022-09-01T11:12:12.111Z,0.20
2022-09-01T11:24:17.387Z,0.20
2022-09-01T11:29:58.543Z,0.20
2022-09-01T11:35:27.773Z,0.25
2022-09-01T11:40:58.221Z,0.30
2022-09-01T11:52:28.895Z,0.20
2022-09-01T11:57:54.355Z,0.20
2022-09-01T12:03:58.654Z,0.38
2022-09-01T12:09:06.714Z,0.30
2022-09-01T12:20:41.063Z,0.20
2022-09-01T12:26:22.158Z,0.30
2022-09-01T12:31:46.262Z,0.30
2022-09-01T12:37:07.174Z,0.20
2022-09-01T12:42:44.737Z,0.30
2022-09-01T12:47:53.364Z,0.30
2022-09-01T12:53:23.509Z,0.30
2022-09-01T12:58:33.228Z,0.28
2022-09-01T13:03:37.934Z,0.40
2022-09-01T13:08:43.667Z,0.30
2022-09-01T13:13:47.725Z,0.50
2022-09-01T13:19:10.917Z,0.30
2022-09-01T13:24:16.566Z,0.30
2022-09-01T13:29:32.174Z,0.32
2022-09-01T13:34:41.271Z,0.30
2022-09-01T13:40:01.830Z,0.30
2022-09-01T13:45:07.708Z,0.20
2022-09-01T13:50:12.322Z,0.30
2022-09-01T13:55:41.802Z,0.20
2022-09-01T14:00:46.786Z,0.40
2022-09-01T14:06:00.074Z,0.30
2022-09-01T14:11:26.309Z,0.30
2022-09-01T14:16:30.508Z,0.30
2022-09-01T14:21:32.853Z,0.30
2022-09-01T14:26:36.680Z,0.22
2022-09-01T14:37:17.102Z,0.30
2022-09-01T14:42:22.416Z,0.30
2022-09-01T14:47:26.653Z,0.40
2022-09-01T14:52:35.881Z,0.20
2022-09-01T14:57:56.838Z,0.50
2022-09-01T15:03:22.702Z,0.20
2022-09-01T15:14:11.921Z,0.32
2022-09-01T15:19:22.276Z,0.30
2022-09-01T15:24:24.707Z,0.30
2022-09-01T15:35:23.928Z,0.30
2022-09-01T15:40:33.264Z,0.40
2022-09-01T15:45:49.008Z,0.30
2022-09-01T15:51:25.176Z,0.35
2022-09-01T16:02:45.306Z,0.35
2022-09-01T16:07:51.946Z,0.30
2022-09-01T16:13:02.481Z,0.30
2022-09-01T16:30:04.769Z,0.70
2022-09-01T16:48:41.661Z,0.30
2022-09-01T16:54:53.930Z,0.30
2022-09-01T17:00:20.750Z,0.30
2022-09-01T17:11:24.613Z,0.30
2022-09-01T17:16:48.045Z,0.30
2022-09-01T17:22:19.069Z,0.20
2022-09-01T17:34:10.468Z,0.38
2022-09-01T17:40:16.731Z,0.30
2022-09-01T17:46:01.595Z,0.30
2022-09-01T17:51:22.074Z,0.43
2022-09-01T17:57:02.734Z,0.30
2022-09-01T18:02:59.361Z,0.30
2022-09-01T18:08:32.492Z,0.45
2022-09-01T18:14:15.444Z,0.40
2022-09-01T18:19:23.414Z,0.40
2022-09-01T18:24:40.261Z,0.40
2022-09-01T18:35:19.836Z,0.60
2022-09-01T18:41:07.360Z,0.30
2022-09-01T18:53:01.157Z,0.20
2022-09-01T18:58:12.847Z,0.30
2022-09-01T19:03:36.613Z,0.35
2022-09-01T19:21:06.014Z,0.30
2022-09-01T19:31:48.074Z,0.50
2022-09-01T19:36:57.405Z,0.50
2022-09-01T19:42:35.332Z,0.30
2022-09-01T19:47:47.685Z,0.40
2022-09-01T19:52:56.777Z,0.50
2022-09-01T19:58:36.064Z,0.77
2022-09-01T20:03:50.349Z,0.25
2022-09-01T20:09:10.157Z,0.38
2022-09-01T20:14:33.223Z,0.30
2022-09-01T20:19:49.922Z,0.40
2022-09-01T20:24:58.279Z,0.77
2022-09-01T20:30:09.868Z,0.30
2022-09-01T20:35:21.870Z,0.20
2022-09-01T20:40:30.807Z,0.40
2022-09-01T20:45:33.151Z,0.32
2022-09-01T20:51:07.727Z,0.20
2022-09-01T20:56:14.783Z,0.20
2022-09-01T21:01:23.165Z,0.40
2022-09-01T21:06:51.652Z,0.28
2022-09-01T21:12:34.872Z,0.30
2022-09-01T21:17:41.511Z,0.30
2022-09-01T21:22:43.628Z,0.20
2022-09-01T21:27:57.932Z,0.30
2022-09-01T21:33:00.154Z,0.20
2022-09-01T21:38:01.985Z,0.20
2022-09-01T21:43:13.852Z,0.30
2022-09-01T21:48:16.195Z,0.40
2022-09-01T21:53:20.184Z,0.20
2022-09-01T21:58:21.956Z,0.20
2022-09-01T22:03:24.125Z,0.25
2022-09-01T22:08:26.150Z,0.20
2022-09-01T22:13:27.989Z,0.30
2022-09-01T22:18:29.830Z,0.25
2022-09-01T22:23:31.897Z,0.40
2022-09-01T22:28:33.761Z,0.30
2022-09-01T22:33:35.479Z,0.30
2022-09-01T22:38:37.274Z,0.22
2022-09-01T22:43:39.044Z,0.25
2022-09-01T22:48:41.174Z,0.65
2022-09-01T22:53:45.196Z,0.20
2022-09-01T22:58:48.674Z,0.20
2022-09-01T23:03:50.630Z,0.20
2022-09-01T23:08:54.310Z,0.30
2022-09-01T23:13:56.495Z,0.38
2022-09-01T23:18:58.306Z,0.25
2022-09-01T23:24:00.991Z,0.40
2022-09-01T23:29:04.931Z,0.30
2022-09-01T23:34:08.269Z,0.20
2022-09-01T23:39:10.129Z,0.30
2022-09-01T23:44:12.147Z,0.30
2022-09-01T23:49:15.804Z,0.20
2022-09-01T23:54:17.642Z,0.32
2022-09-01T23:59:27.234Z,0.30
